PHAMS EGNV-EHAM
Flight info
| Callsign | PHAMS |
|---|---|
| Flight time | N/A |
| Altitude | 35000 |
| Route | ERKIT L602 OTR L90 DOLAS L603 LAMSO |
| Aircraft | C750/M-SBDE3FGHRWXY/S |
Departure
| Time | 2026-04-12 16:03 |
|---|---|
| Airport | Teesside International Airport (EGNV) |
Arrival
| Time | N/A |
|---|---|
| Airport | Amsterdam Airport Schiphol (EHAM) |
| Time | Latitude | Longitude | Altitude | Speed | Heading |
|---|---|---|---|---|---|
| 2026-04-12 15:56 | 54.51485 | -1.42496 | 123 ft | 0 kts | 281° |
| 2026-04-12 15:59 | 54.51485 | -1.42497 | 123 ft | 1 kts | 281° |
| 2026-04-12 16:00 | 54.51506 | -1.42539 | 121 ft | 6 kts | 1° |
| 2026-04-12 16:00 | 54.51564 | -1.42520 | 120 ft | 10 kts | 9° |
| 2026-04-12 16:00 | 54.51628 | -1.42494 | 120 ft | 10 kts | 13° |
| 2026-04-12 16:00 | 54.51695 | -1.42471 | 118 ft | 10 kts | 11° |
| 2026-04-12 16:01 | 54.51766 | -1.42438 | 116 ft | 10 kts | 19° |
| 2026-04-12 16:01 | 54.51805 | -1.42343 | 118 ft | 12 kts | 76° |
| 2026-04-12 16:01 | 54.51803 | -1.42176 | 118 ft | 17 kts | 94° |
| 2026-04-12 16:01 | 54.51800 | -1.41946 | 118 ft | 19 kts | 92° |
| 2026-04-12 16:02 | 54.51743 | -1.41764 | 121 ft | 18 kts | 145° |
| 2026-04-12 16:02 | 54.51625 | -1.41695 | 118 ft | 18 kts | 180° |
| 2026-04-12 16:02 | 54.51492 | -1.41870 | 117 ft | 48 kts | 228° |
| 2026-04-12 16:02 | 54.51029 | -1.42739 | 119 ft | 136 kts | 227° |
| 2026-04-12 16:03 | 54.50423 | -1.43861 | 811 ft | 122 kts | 229° |
| 2026-04-12 16:03 | 54.49843 | -1.44954 | 1376 ft | 126 kts | 229° |
| 2026-04-12 16:03 | 54.49262 | -1.46158 | 2085 ft | 138 kts | 232° |
| 2026-04-12 16:03 | 54.48643 | -1.47510 | 2807 ft | 152 kts | 225° |
| 2026-04-12 16:04 | 54.47526 | -1.48118 | 3212 ft | 191 kts | 187° |
| 2026-04-12 16:04 | 54.46123 | -1.47656 | 3677 ft | 231 kts | 160° |
| 2026-04-12 16:04 | 54.44765 | -1.45807 | 4241 ft | 263 kts | 141° |
| 2026-04-12 16:04 | 54.43456 | -1.43592 | 5362 ft | 263 kts | 142° |
| 2026-04-12 16:05 | 54.42079 | -1.41482 | 6445 ft | 267 kts | 145° |
| 2026-04-12 16:05 | 54.40654 | -1.39402 | 7537 ft | 270 kts | 145° |
| 2026-04-12 16:05 | 54.39228 | -1.37255 | 8706 ft | 274 kts | 144° |
| 2026-04-12 16:05 | 54.37791 | -1.35059 | 9778 ft | 279 kts | 144° |
| 2026-04-12 16:06 | 54.36289 | -1.32789 | 10343 ft | 299 kts | 144° |
| 2026-04-12 16:06 | 54.34670 | -1.30364 | 10563 ft | 327 kts | 143° |
| 2026-04-12 16:06 | 54.32905 | -1.27696 | 10957 ft | 345 kts | 143° |
| 2026-04-12 16:06 | 54.31090 | -1.24930 | 11914 ft | 345 kts | 143° |
| 2026-04-12 16:07 | 54.29304 | -1.22235 | 12696 ft | 349 kts | 143° |
| 2026-04-12 16:07 | 54.27466 | -1.19485 | 13504 ft | 353 kts | 143° |
| 2026-04-12 16:07 | 54.25565 | -1.16632 | 14240 ft | 356 kts | 143° |
| 2026-04-12 16:07 | 54.23745 | -1.13893 | 14935 ft | 359 kts | 143° |
| 2026-04-12 16:08 | 54.21858 | -1.11060 | 15662 ft | 362 kts | 143° |
| 2026-04-12 16:08 | 54.20001 | -1.08285 | 16374 ft | 365 kts | 144° |
| 2026-04-12 16:08 | 54.18012 | -1.05313 | 17110 ft | 369 kts | 143° |
| 2026-04-12 16:08 | 54.16098 | -1.02450 | 17904 ft | 371 kts | 143° |
| 2026-04-12 16:09 | 54.14147 | -0.99540 | 18579 ft | 374 kts | 143° |
| 2026-04-12 16:09 | 54.12162 | -0.96587 | 19264 ft | 377 kts | 144° |
| 2026-04-12 16:09 | 54.10169 | -0.93622 | 19962 ft | 381 kts | 144° |
| 2026-04-12 16:09 | 54.08166 | -0.90646 | 20652 ft | 384 kts | 144° |
| 2026-04-12 16:10 | 54.06166 | -0.87680 | 21328 ft | 387 kts | 144° |
| 2026-04-12 16:10 | 54.04124 | -0.84651 | 22010 ft | 391 kts | 144° |
| 2026-04-12 16:10 | 54.02217 | -0.81250 | 22636 ft | 402 kts | 135° |
| 2026-04-12 16:10 | 54.00516 | -0.77438 | 23309 ft | 406 kts | 133° |
| 2026-04-12 16:11 | 53.98791 | -0.73617 | 23830 ft | 411 kts | 134° |
| 2026-04-12 16:11 | 53.97010 | -0.69734 | 24183 ft | 420 kts | 135° |
| 2026-04-12 16:11 | 53.95223 | -0.65794 | 24802 ft | 422 kts | 134° |
| 2026-04-12 16:11 | 53.93433 | -0.61819 | 25377 ft | 425 kts | 134° |
| 2026-04-12 16:12 | 53.91622 | -0.57830 | 25959 ft | 428 kts | 134° |
| 2026-04-12 16:12 | 53.89788 | -0.53819 | 26534 ft | 431 kts | 135° |
| 2026-04-12 16:12 | 53.87967 | -0.49832 | 27100 ft | 435 kts | 135° |
| 2026-04-12 16:12 | 53.86106 | -0.45753 | 27528 ft | 442 kts | 135° |
| 2026-04-12 16:13 | 53.84208 | -0.41604 | 28171 ft | 442 kts | 135° |
| 2026-04-12 16:13 | 53.82322 | -0.37477 | 28853 ft | 444 kts | 135° |
| 2026-04-12 16:13 | 53.80413 | -0.33333 | 29361 ft | 449 kts | 135° |
| 2026-04-12 16:13 | 53.78474 | -0.29155 | 29925 ft | 452 kts | 135° |
| 2026-04-12 16:14 | 53.76519 | -0.24970 | 30353 ft | 456 kts | 135° |
| 2026-04-12 16:14 | 53.74533 | -0.20752 | 30770 ft | 460 kts | 135° |
| 2026-04-12 16:14 | 53.72538 | -0.16542 | 31377 ft | 457 kts | 136° |
| 2026-04-12 16:14 | 53.70548 | -0.12357 | 32010 ft | 457 kts | 136° |
| 2026-04-12 16:15 | 53.68552 | -0.08182 | 32581 ft | 457 kts | 136° |
| 2026-04-12 16:15 | 53.66571 | -0.04060 | 33171 ft | 457 kts | 137° |
| 2026-04-12 16:15 | 53.64560 | 0.00101 | 33746 ft | 457 kts | 137° |
| 2026-04-12 16:15 | 53.62547 | 0.04244 | 34273 ft | 457 kts | 137° |
| 2026-04-12 16:16 | 53.60523 | 0.08382 | 34759 ft | 458 kts | 137° |
| 2026-04-12 16:16 | 53.58482 | 0.12529 | 35257 ft | 458 kts | 137° |
| 2026-04-12 16:16 | 53.56437 | 0.16659 | 35767 ft | 459 kts | 137° |
| 2026-04-12 16:16 | 53.54385 | 0.20776 | 36279 ft | 459 kts | 137° |
| 2026-04-12 16:17 | 53.52331 | 0.24877 | 36772 ft | 459 kts | 137° |
| 2026-04-12 16:17 | 53.50272 | 0.28956 | 36822 ft | 470 kts | 137° |
| 2026-04-12 16:17 | 53.48116 | 0.33180 | 36822 ft | 482 kts | 137° |
| 2026-04-12 16:17 | 53.45898 | 0.37479 | 36829 ft | 493 kts | 137° |
| 2026-04-12 16:18 | 53.43619 | 0.41855 | 36847 ft | 503 kts | 137° |
| 2026-04-12 16:18 | 53.39048 | 0.50573 | 36833 ft | 481 kts | 137° |
| 2026-04-12 16:19 | 53.34332 | 0.58718 | 36815 ft | 488 kts | 149° |
| 2026-04-12 16:19 | 53.28606 | 0.64996 | 36853 ft | 492 kts | 158° |
| 2026-04-12 16:20 | 53.22372 | 0.69507 | 36848 ft | 490 kts | 163° |
| 2026-04-12 16:20 | 53.16038 | 0.73806 | 36856 ft | 493 kts | 163° |
| 2026-04-12 16:21 | 53.09634 | 0.78263 | 36807 ft | 507 kts | 157° |
| 2026-04-12 16:21 | 53.03841 | 0.85070 | 36859 ft | 515 kts | 150° |
| 2026-04-12 16:22 | 52.98234 | 0.92248 | 36799 ft | 512 kts | 140° |
| 2026-04-12 16:22 | 52.96192 | 0.97219 | 36853 ft | 531 kts | 124° |
| 2026-04-12 16:22 | 52.94593 | 1.02785 | 36666 ft | 547 kts | 115° |
| 2026-04-12 16:23 | 52.92716 | 1.15000 | 36773 ft | 547 kts | 110° |
| 2026-04-12 16:23 | 52.90833 | 1.27252 | 36845 ft | 548 kts | 110° |
| 2026-04-12 16:24 | 52.88921 | 1.39416 | 36846 ft | 549 kts | 111° |
| 2026-04-12 16:24 | 52.86975 | 1.51623 | 36811 ft | 549 kts | 111° |
| 2026-04-12 16:25 | 52.84998 | 1.63864 | 36859 ft | 550 kts | 111° |
| 2026-04-12 16:25 | 52.83239 | 1.76253 | 36840 ft | 560 kts | 103° |
| 2026-04-12 16:26 | 52.83094 | 1.89160 | 36871 ft | 568 kts | 94° |
| 2026-04-12 16:26 | 52.83492 | 2.02225 | 36845 ft | 569 kts | 92° |
| 2026-04-12 16:27 | 52.84020 | 2.15305 | 36872 ft | 568 kts | 91° |
| 2026-04-12 16:27 | 52.84307 | 2.21691 | 35841 ft | 549 kts | 92° |
| 2026-04-12 16:27 | 52.84466 | 2.27978 | 33169 ft | 553 kts | 99° |
| 2026-04-12 16:27 | 52.84418 | 2.34291 | 29627 ft | 534 kts | 103° |
| 2026-04-12 16:28 | 52.84294 | 2.40580 | 26374 ft | 528 kts | 101° |
| 2026-04-12 16:28 | 52.84133 | 2.46269 | 24595 ft | 470 kts | 101° |
| 2026-04-12 16:28 | 52.83941 | 2.51243 | 24449 ft | 408 kts | 103° |
| 2026-04-12 16:28 | 52.83784 | 2.55699 | 24500 ft | 367 kts | 104° |
| 2026-04-12 16:29 | 52.83499 | 2.59651 | 24337 ft | 323 kts | 111° |
| 2026-04-12 16:29 | 52.83099 | 2.63227 | 23069 ft | 323 kts | 114° |
| 2026-04-12 16:29 | 52.82571 | 2.66839 | 22738 ft | 316 kts | 115° |
| 2026-04-12 16:29 | 52.82060 | 2.70275 | 22871 ft | 300 kts | 116° |
| 2026-04-12 16:30 | 52.81581 | 2.73593 | 22897 ft | 293 kts | 116° |
| 2026-04-12 16:30 | 52.81119 | 2.76846 | 22896 ft | 289 kts | 116° |
| 2026-04-12 16:30 | 52.80668 | 2.80067 | 22895 ft | 286 kts | 116° |
| 2026-04-12 16:30 | 52.80226 | 2.83250 | 22909 ft | 283 kts | 116° |
| 2026-04-12 16:31 | 52.79796 | 2.86373 | 22911 ft | 282 kts | 116° |
| 2026-04-12 16:31 | 52.79364 | 2.89507 | 22903 ft | 281 kts | 116° |
| 2026-04-12 16:31 | 52.78920 | 2.92642 | 22903 ft | 279 kts | 116° |
| 2026-04-12 16:31 | 52.78479 | 2.95764 | 22906 ft | 279 kts | 116° |
| 2026-04-12 16:32 | 52.78040 | 2.98883 | 22913 ft | 278 kts | 116° |
| 2026-04-12 16:32 | 52.77606 | 3.01990 | 22867 ft | 278 kts | 116° |